Time;durP1;ratioP1;P1;durP2;ratioP2;P2;SDS_P1;SDS_P2;PMS_P1;PMS_P2;Temp;Humidity;BMP_temperature;BMP_pressure;BME280_temperature;BME280_humidity;BME280_pressure;Samples;Min_cycle;Max_cycle;Signal;HPM_P1;HPM_P2
2022/02/18 00:00:24;;;;;;;12.35;5.18;;;;;;;;;;5025252;28;20091;-50
2022/02/18 00:02:51;;;;;;;18.70;8.93;;;;;;;;;;5025097;28;20021;-48
2022/02/18 00:05:17;;;;;;;38.10;18.80;;;;;;;;;;5026527;28;20053;-48
2022/02/18 00:07:43;;;;;;;31.92;15.95;;;;;;;;;;5025011;28;20018;-48
2022/02/18 00:10:09;;;;;;;23.98;13.57;;;;;;;;;;5025424;28;20021;-54
2022/02/18 00:12:35;;;;;;;17.40;8.10;;;;;;;;;;5026439;28;20040;-48
2022/02/18 00:15:02;;;;;;;5.95;2.55;;;;;;;;;;5024597;28;20018;-52
2022/02/18 00:17:28;;;;;;;8.98;4.88;;;;;;;;;;5025235;28;20018;-52
2022/02/18 00:19:56;;;;;;;17.30;7.82;;;;;;;;;;5026395;28;20489;-53
2022/02/18 00:22:22;;;;;;;13.45;6.72;;;;;;;;;;5022386;28;20016;-48
2022/02/18 00:24:49;;;;;;;7.45;3.45;;;;;;;;;;5025195;28;20033;-50
2022/02/18 00:27:15;;;;;;;16.98;8.20;;;;;;;;;;5026326;28;20115;-47
2022/02/18 00:29:41;;;;;;;24.48;12.65;;;;;;;;;;5024246;28;20018;-49
2022/02/18 00:32:10;;;;;;;11.73;3.20;;;;;;;;;;5025070;28;20059;-50
2022/02/18 00:34:36;;;;;;;17.23;9.07;;;;;;;;;;5024287;28;20030;-48
2022/02/18 00:37:03;;;;;;;14.38;7.03;;;;;;;;;;5003540;28;20073;-51
2022/02/18 00:39:29;;;;;;;14.02;7.85;;;;;;;;;;5005001;28;20034;-55
2022/02/18 00:41:55;;;;;;;13.20;6.88;;;;;;;;;;5006382;28;20036;-56
2022/02/18 00:44:21;;;;;;;10.85;4.75;;;;;;;;;;5003979;28;20022;-52
2022/02/18 00:46:48;;;;;;;8.27;3.55;;;;;;;;;;5005039;28;20025;-54
2022/02/18 00:49:14;;;;;;;7.75;2.40;;;;;;;;;;5006415;28;20033;-55
2022/02/18 00:51:40;;;;;;;49.42;28.52;;;;;;;;;;5004377;28;20050;-48
2022/02/18 00:54:06;;;;;;;15.30;4.25;;;;;;;;;;5005399;28;20014;-53
2022/02/18 00:56:32;;;;;;;11.13;4.32;;;;;;;;;;5004591;28;20096;-50
2022/02/18 00:59:02;;;;;;;11.50;4.63;;;;;;;;;;5003942;28;20065;-52
2022/02/18 01:01:28;;;;;;;9.82;4.15;;;;;;;;;;5005159;28;20025;-53
2022/02/18 01:03:54;;;;;;;6.18;3.28;;;;;;;;;;5005934;28;20039;-48
2022/02/18 01:06:21;;;;;;;9.82;3.90;;;;;;;;;;5000728;28;20078;-58
2022/02/18 01:08:47;;;;;;;13.80;3.42;;;;;;;;;;4995857;28;20364;-58
2022/02/18 01:11:15;;;;;;;12.45;5.07;;;;;;;;;;5001176;28;20113;-58
2022/02/18 01:13:41;;;;;;;12.30;5.10;;;;;;;;;;5005217;28;20026;-58
2022/02/18 01:16:07;;;;;;;10.20;3.90;;;;;;;;;;5005800;28;20105;-57
2022/02/18 01:18:34;;;;;;;16.08;7.80;;;;;;;;;;5003750;28;20030;-57
2022/02/18 01:21:02;;;;;;;9.65;2.78;;;;;;;;;;5005135;28;20049;-55
2022/02/18 01:23:28;;;;;;;25.25;11.10;;;;;;;;;;5005570;28;20022;-55
2022/02/18 01:25:54;;;;;;;20.70;8.95;;;;;;;;;;5003641;28;20026;-58
2022/02/18 01:28:20;;;;;;;11.98;4.72;;;;;;;;;;5004840;28;20021;-57
2022/02/18 01:30:46;;;;;;;51.03;27.40;;;;;;;;;;5005073;28;20029;-58
2022/02/18 01:33:12;;;;;;;27.88;14.00;;;;;;;;;;5003337;28;20517;-56
2022/02/18 01:35:39;;;;;;;29.55;13.65;;;;;;;;;;5006968;28;20489;-57
2022/02/18 01:38:05;;;;;;;16.45;7.50;;;;;;;;;;5024335;28;20378;-55
2022/02/18 01:40:32;;;;;;;12.40;1.95;;;;;;;;;;5022921;28;20493;-57
2022/02/18 01:42:58;;;;;;;39.72;19.70;;;;;;;;;;5024736;28;20357;-56
2022/02/18 01:45:25;;;;;;;28.30;11.20;;;;;;;;;;5024118;28;20592;-55
2022/02/18 01:47:51;;;;;;;31.52;16.70;;;;;;;;;;5022957;28;20030;-57
2022/02/18 01:50:17;;;;;;;17.63;8.65;;;;;;;;;;5015476;28;20474;-57
2022/02/18 01:52:46;;;;;;;15.27;6.50;;;;;;;;;;5014342;28;20132;-59
2022/02/18 01:55:13;;;;;;;16.63;7.00;;;;;;;;;;5014490;28;20109;-58
2022/02/18 01:58:02;;;;;;;22.92;8.77;;;;;;;;;;5014516;28;20443;-59
2022/02/18 02:00:29;;;;;;;19.30;7.47;;;;;;;;;;5013146;28;20073;-58
2022/02/18 02:02:56;;;;;;;8.25;3.40;;;;;;;;;;5014355;28;20033;-51
2022/02/18 02:05:22;;;;;;;12.15;5.57;;;;;;;;;;5014046;28;20040;-57
2022/02/18 02:07:49;;;;;;;13.68;5.72;;;;;;;;;;5014199;28;20054;-59
2022/02/18 02:10:18;;;;;;;17.88;6.03;;;;;;;;;;5014059;28;20026;-56
2022/02/18 02:12:50;;;;;;;12.48;3.60;;;;;;;;;;5014050;28;20029;-58
2022/02/18 02:15:17;;;;;;;15.48;7.38;;;;;;;;;;5014030;28;20060;-58
2022/02/18 02:17:43;;;;;;;18.00;8.68;;;;;;;;;;5014062;28;20141;-56
2022/02/18 02:20:10;;;;;;;10.23;4.45;;;;;;;;;;5013993;28;20100;-58
2022/02/18 02:22:36;;;;;;;15.07;7.95;;;;;;;;;;5013836;28;20030;-58
2022/02/18 02:25:03;;;;;;;15.00;5.43;;;;;;;;;;5013849;28;20026;-56
2022/02/18 02:27:30;;;;;;;19.08;10.68;;;;;;;;;;5014199;28;20029;-57
2022/02/18 02:29:56;;;;;;;8.40;3.35;;;;;;;;;;5013940;28;20025;-53
2022/02/18 02:32:23;;;;;;;28.25;12.65;;;;;;;;;;5013881;28;20033;-56
2022/02/18 02:34:49;;;;;;;13.02;5.93;;;;;;;;;;5010229;28;20548;-56
2022/02/18 02:37:17;;;;;;;16.95;9.40;;;;;;;;;;4993894;28;20038;-56
2022/02/18 02:39:43;;;;;;;10.38;3.92;;;;;;;;;;4994250;28;20121;-56
2022/02/18 02:42:10;;;;;;;15.30;6.15;;;;;;;;;;4994048;28;20026;-56
2022/02/18 02:44:36;;;;;;;13.23;4.07;;;;;;;;;;4994302;28;20057;-55
2022/02/18 02:47:05;;;;;;;16.30;5.78;;;;;;;;;;4993923;28;20041;-56
2022/02/18 02:49:32;;;;;;;16.30;6.15;;;;;;;;;;4994079;28;20040;-56
2022/02/18 02:52:00;;;;;;;20.65;8.20;;;;;;;;;;4994047;28;20029;-56
2022/02/18 02:54:26;;;;;;;17.25;7.43;;;;;;;;;;4993765;28;20034;-56
2022/02/18 02:56:55;;;;;;;13.02;5.13;;;;;;;;;;4994054;28;20049;-56
2022/02/18 02:59:21;;;;;;;13.15;3.45;;;;;;;;;;4995131;28;20065;-56
2022/02/18 03:01:48;;;;;;;6.65;2.45;;;;;;;;;;5000385;28;20057;-56
2022/02/18 03:04:14;;;;;;;6.55;2.35;;;;;;;;;;5000147;28;20474;-57
2022/02/18 03:06:40;;;;;;;10.18;2.95;;;;;;;;;;5000271;28;20038;-56
2022/02/18 03:09:10;;;;;;;4.88;1.75;;;;;;;;;;5000506;28;20041;-55
2022/02/18 03:11:36;;;;;;;5.70;2.15;;;;;;;;;;5000134;28;20529;-50
2022/02/18 03:14:03;;;;;;;11.57;3.78;;;;;;;;;;5000163;28;20490;-55
2022/02/18 03:16:29;;;;;;;12.18;3.50;;;;;;;;;;5000210;28;20537;-54
2022/02/18 03:18:55;;;;;;;7.25;2.60;;;;;;;;;;5000343;28;20026;-50
2022/02/18 03:21:21;;;;;;;6.28;2.03;;;;;;;;;;5000222;28;20168;-51
2022/02/18 03:23:48;;;;;;;7.18;2.20;;;;;;;;;;5000219;28;20018;-50
2022/02/18 03:26:15;;;;;;;4.53;2.20;;;;;;;;;;5000118;28;20495;-49
2022/02/18 03:28:41;;;;;;;9.65;2.72;;;;;;;;;;5000074;28;20153;-52
2022/02/18 03:31:10;;;;;;;7.68;2.28;;;;;;;;;;5000022;28;20031;-50
2022/02/18 03:33:40;;;;;;;8.75;3.95;;;;;;;;;;5000051;28;20022;-49
2022/02/18 03:36:06;;;;;;;8.60;2.22;;;;;;;;;;4998190;28;20462;-52
2022/02/18 03:38:33;;;;;;;5.57;2.35;;;;;;;;;;4999928;28;20062;-54
2022/02/18 03:40:59;;;;;;;4.63;1.80;;;;;;;;;;4998275;28;20499;-55
2022/02/18 03:43:26;;;;;;;8.50;2.70;;;;;;;;;;4999989;28;20434;-56
2022/02/18 03:45:52;;;;;;;9.85;3.25;;;;;;;;;;4999991;28;20022;-55
2022/02/18 03:48:18;;;;;;;7.82;2.97;;;;;;;;;;5000029;28;20427;-57
2022/02/18 03:50:44;;;;;;;9.18;2.63;;;;;;;;;;4999849;28;20026;-55
2022/02/18 03:53:10;;;;;;;12.27;3.30;;;;;;;;;;4999841;28;20097;-56
2022/02/18 03:55:36;;;;;;;8.80;2.42;;;;;;;;;;4999720;28;20394;-57
2022/02/18 03:58:03;;;;;;;6.88;2.33;;;;;;;;;;4999750;28;20027;-56
2022/02/18 04:00:31;;;;;;;6.82;2.20;;;;;;;;;;4999727;28;20039;-56
2022/02/18 04:02:57;;;;;;;5.88;2.03;;;;;;;;;;4999899;28;20146;-54
2022/02/18 04:05:23;;;;;;;10.02;3.90;;;;;;;;;;4999608;28;20446;-56
2022/02/18 04:07:50;;;;;;;9.20;2.78;;;;;;;;;;4999593;28;20062;-56
2022/02/18 04:10:16;;;;;;;10.73;2.60;;;;;;;;;;4999644;28;20034;-56
2022/02/18 04:12:42;;;;;;;10.13;3.15;;;;;;;;;;4996552;28;20026;-55
2022/02/18 04:15:11;;;;;;;9.80;3.90;;;;;;;;;;4996666;28;20018;-57
2022/02/18 04:17:37;;;;;;;8.93;3.47;;;;;;;;;;4996405;28;20026;-57
2022/02/18 04:20:03;;;;;;;7.63;2.45;;;;;;;;;;4996458;28;20093;-55
2022/02/18 04:22:29;;;;;;;5.63;1.98;;;;;;;;;;4996744;28;20089;-56
2022/02/18 04:24:55;;;;;;;8.98;2.10;;;;;;;;;;4996383;28;20105;-56
2022/02/18 04:27:21;;;;;;;8.18;2.65;;;;;;;;;;4996427;28;20502;-56
2022/02/18 04:29:47;;;;;;;5.70;2.38;;;;;;;;;;4996535;28;20022;-56
2022/02/18 04:32:13;;;;;;;6.18;2.22;;;;;;;;;;4996368;28;20029;-57
2022/02/18 04:34:40;;;;;;;7.10;2.45;;;;;;;;;;4995933;28;20019;-57
2022/02/18 04:37:06;;;;;;;8.45;2.50;;;;;;;;;;4996097;28;20062;-56
2022/02/18 04:39:32;;;;;;;4.65;1.63;;;;;;;;;;4996032;28;20035;-57
2022/02/18 04:41:59;;;;;;;8.13;2.15;;;;;;;;;;4996150;28;20019;-55
2022/02/18 04:44:25;;;;;;;9.70;3.20;;;;;;;;;;4996099;28;20054;-55
2022/02/18 04:46:51;;;;;;;7.38;2.08;;;;;;;;;;4996100;28;20097;-55
2022/02/18 04:49:17;;;;;;;9.55;2.60;;;;;;;;;;4995982;28;20424;-56
2022/02/18 04:51:43;;;;;;;8.43;2.90;;;;;;;;;;4995901;28;20030;-56
2022/02/18 04:54:09;;;;;;;7.28;2.28;;;;;;;;;;4994570;28;20173;-56
2022/02/18 04:56:35;;;;;;;10.75;2.60;;;;;;;;;;4995807;28;20026;-56
2022/02/18 04:59:02;;;;;;;5.07;1.90;;;;;;;;;;4995987;28;20480;-55
2022/02/18 05:01:28;;;;;;;11.15;2.60;;;;;;;;;;4995856;28;20037;-56
2022/02/18 05:03:54;;;;;;;11.07;2.55;;;;;;;;;;4995647;28;20044;-56
2022/02/18 05:06:20;;;;;;;10.90;3.53;;;;;;;;;;4995697;28;20448;-56
2022/02/18 05:08:46;;;;;;;9.77;4.07;;;;;;;;;;4995522;28;20363;-56
2022/02/18 05:11:15;;;;;;;12.43;4.00;;;;;;;;;;4995432;28;20170;-55
2022/02/18 05:13:41;;;;;;;19.80;5.65;;;;;;;;;;4995464;28;20026;-54
2022/02/18 05:16:07;;;;;;;10.07;4.88;;;;;;;;;;4995548;28;20498;-54
2022/02/18 05:18:34;;;;;;;15.13;6.05;;;;;;;;;;4995717;28;20478;-54
2022/02/18 05:21:00;;;;;;;17.15;6.38;;;;;;;;;;4995202;28;20501;-54
2022/02/18 05:23:26;;;;;;;19.98;6.68;;;;;;;;;;4994649;28;20443;-56
2022/02/18 05:25:52;;;;;;;20.23;6.53;;;;;;;;;;4995112;28;20038;-56
2022/02/18 05:28:20;;;;;;;20.15;6.03;;;;;;;;;;4995347;28;20034;-56
2022/02/18 05:30:46;;;;;;;20.25;6.00;;;;;;;;;;4995118;28;20173;-56
2022/02/18 05:33:12;;;;;;;22.33;7.20;;;;;;;;;;4995395;28;20022;-56
2022/02/18 05:35:44;;;;;;;14.32;5.20;;;;;;;;;;4995222;28;20077;-56
2022/02/18 05:38:10;;;;;;;14.30;4.97;;;;;;;;;;4995164;28;20029;-55
2022/02/18 05:40:36;;;;;;;10.80;5.03;;;;;;;;;;4994909;28;20034;-57
2022/02/18 05:43:02;;;;;;;14.73;5.13;;;;;;;;;;4994931;28;20046;-54
2022/02/18 05:45:28;;;;;;;14.55;6.93;;;;;;;;;;4994865;28;20097;-56
2022/02/18 05:47:54;;;;;;;21.10;8.45;;;;;;;;;;4994813;28;20052;-57
2022/02/18 05:50:20;;;;;;;21.85;9.32;;;;;;;;;;4994786;28;20061;-57
2022/02/18 05:52:46;;;;;;;20.42;8.70;;;;;;;;;;4994713;28;20073;-54
2022/02/18 05:55:13;;;;;;;23.05;8.90;;;;;;;;;;4994627;28;20038;-54
2022/02/18 05:57:39;;;;;;;27.23;11.02;;;;;;;;;;4993367;28;20031;-55
2022/02/18 06:00:09;;;;;;;27.88;11.45;;;;;;;;;;4994614;28;20092;-53
2022/02/18 06:02:35;;;;;;;30.38;10.77;;;;;;;;;;4994735;28;20097;-55
2022/02/18 06:05:02;;;;;;;48.30;14.95;;;;;;;;;;4994569;28;20037;-55
2022/02/18 06:07:29;;;;;;;56.58;20.73;;;;;;;;;;4994461;28;20030;-54
2022/02/18 06:09:55;;;;;;;79.95;28.38;;;;;;;;;;4994408;28;20037;-54
2022/02/18 06:12:21;;;;;;;60.25;23.42;;;;;;;;;;4994678;28;20029;-54
2022/02/18 06:14:50;;;;;;;43.60;17.70;;;;;;;;;;4994485;28;20072;-53
2022/02/18 06:17:22;;;;;;;29.30;10.73;;;;;;;;;;4994511;28;20150;-53
2022/02/18 06:19:48;;;;;;;27.27;10.25;;;;;;;;;;4994341;28;20037;-54
2022/02/18 06:22:15;;;;;;;18.90;7.68;;;;;;;;;;4994255;28;20105;-53
2022/02/18 06:24:42;;;;;;;13.93;4.82;;;;;;;;;;4994376;28;20364;-54
2022/02/18 06:27:12;;;;;;;21.52;6.57;;;;;;;;;;4994170;28;20463;-55
2022/02/18 06:29:38;;;;;;;23.77;8.73;;;;;;;;;;4994244;28;20022;-54
2022/02/18 06:32:07;;;;;;;27.88;10.13;;;;;;;;;;4994272;28;20113;-69
2022/02/18 06:34:33;;;;;;;27.38;10.52;;;;;;;;;;4993281;28;20041;-71
2022/02/18 06:36:59;;;;;;;19.83;8.27;;;;;;;;;;4994087;28;20403;-72
2022/02/18 06:39:25;;;;;;;18.75;7.43;;;;;;;;;;4993921;28;20026;-51
2022/02/18 06:41:51;;;;;;;21.88;6.88;;;;;;;;;;4994180;28;20382;-50
2022/02/18 06:44:18;;;;;;;27.20;10.85;;;;;;;;;;4994071;28;20026;-49
2022/02/18 06:46:44;;;;;;;20.88;11.77;;;;;;;;;;4994226;28;20022;-46
2022/02/18 06:49:10;;;;;;;18.55;10.18;;;;;;;;;;4994016;28;20106;-53
2022/02/18 06:51:36;;;;;;;27.65;14.80;;;;;;;;;;4993854;28;20069;-52
2022/02/18 06:54:02;;;;;;;27.88;15.65;;;;;;;;;;4993857;28;20211;-52
2022/02/18 06:56:28;;;;;;;25.77;10.20;;;;;;;;;;4994056;28;20084;-53
2022/02/18 06:58:55;;;;;;;36.42;13.05;;;;;;;;;;4993788;28;20471;-53
2022/02/18 07:01:21;;;;;;;40.08;15.38;;;;;;;;;;4993971;28;20398;-53
2022/02/18 07:03:47;;;;;;;50.70;19.35;;;;;;;;;;4993792;28;20039;-54
2022/02/18 07:06:15;;;;;;;60.42;26.30;;;;;;;;;;4993936;28;20390;-53
2022/02/18 07:08:42;;;;;;;45.63;19.30;;;;;;;;;;4993471;28;20503;-53
2022/02/18 07:11:08;;;;;;;43.50;17.65;;;;;;;;;;4993941;28;20026;-52
2022/02/18 07:13:34;;;;;;;33.83;17.55;;;;;;;;;;4993713;28;20037;-53
2022/02/18 07:16:00;;;;;;;58.58;29.25;;;;;;;;;;4993867;28;20467;-53
2022/02/18 07:18:26;;;;;;;65.88;29.92;;;;;;;;;;4993594;28;20030;-50
2022/02/18 07:20:53;;;;;;;44.85;24.05;;;;;;;;;;4993588;28;20097;-53
2022/02/18 07:23:19;;;;;;;42.15;21.65;;;;;;;;;;4993585;28;20105;-53
2022/02/18 07:25:45;;;;;;;26.27;15.60;;;;;;;;;;4992580;28;20029;-53
2022/02/18 07:28:11;;;;;;;30.48;12.50;;;;;;;;;;4993549;28;20064;-54
2022/02/18 07:30:37;;;;;;;18.38;9.73;;;;;;;;;;4991931;28;20054;-54
2022/02/18 07:33:04;;;;;;;26.80;13.65;;;;;;;;;;4993800;28;20027;-54
2022/02/18 07:35:32;;;;;;;32.70;16.02;;;;;;;;;;4993194;28;20494;-54
2022/02/18 07:38:02;;;;;;;23.73;12.00;;;;;;;;;;4993386;28;20031;-53
2022/02/18 07:40:29;;;;;;;36.95;13.45;;;;;;;;;;4993239;28;20033;-52
2022/02/18 07:42:55;;;;;;;22.45;9.65;;;;;;;;;;4991798;28;20022;-53
2022/02/18 07:45:22;;;;;;;16.35;7.38;;;;;;;;;;4993663;28;20494;-54
2022/02/18 07:47:57;;;;;;;24.73;11.00;;;;;;;;;;4997126;28;20026;-54
2022/02/18 07:50:26;;;;;;;43.40;20.75;;;;;;;;;;4997012;28;20036;-54
2022/02/18 07:52:53;;;;;;;41.58;18.23;;;;;;;;;;4997150;28;20040;-55
2022/02/18 07:55:19;;;;;;;35.92;20.70;;;;;;;;;;4996992;28;20097;-55
2022/02/18 07:57:45;;;;;;;29.17;14.20;;;;;;;;;;4997083;28;20022;-54
2022/02/18 08:00:12;;;;;;;19.45;10.57;;;;;;;;;;4997033;28;20104;-54
2022/02/18 08:02:38;;;;;;;18.80;9.20;;;;;;;;;;4997090;28;20035;-54
2022/02/18 08:05:05;;;;;;;16.63;8.40;;;;;;;;;;4996712;28;20034;-46
2022/02/18 08:07:31;;;;;;;18.23;8.45;;;;;;;;;;4996879;28;20041;-56
2022/02/18 08:09:57;;;;;;;20.40;9.77;;;;;;;;;;4996638;28;20076;-53
2022/02/18 08:12:23;;;;;;;23.10;8.82;;;;;;;;;;4996832;28;20022;-52
2022/02/18 08:14:49;;;;;;;14.48;6.47;;;;;;;;;;4996692;28;20050;-49
2022/02/18 08:17:15;;;;;;;16.65;6.22;;;;;;;;;;4996630;28;20057;-47
2022/02/18 08:19:41;;;;;;;18.75;6.20;;;;;;;;;;4996451;28;20470;-49
2022/02/18 08:22:08;;;;;;;15.48;5.93;;;;;;;;;;4996385;28;20497;-49
2022/02/18 08:24:34;;;;;;;16.35;6.75;;;;;;;;;;4996280;28;20080;-50
2022/02/18 08:27:01;;;;;;;17.30;6.72;;;;;;;;;;4999013;28;20028;-49
2022/02/18 08:29:27;;;;;;;20.55;8.25;;;;;;;;;;5006280;28;20386;-49
2022/02/18 08:31:54;;;;;;;20.52;8.50;;;;;;;;;;5005349;28;20481;-53
2022/02/18 08:34:23;;;;;;;31.13;14.93;;;;;;;;;;5004705;28;20054;-49
2022/02/18 08:36:49;;;;;;;48.40;11.15;;;;;;;;;;5005742;28;20177;-50
2022/02/18 08:39:15;;;;;;;63.05;33.20;;;;;;;;;;5023290;28;20030;-52
2022/02/18 08:41:41;;;;;;;67.85;39.58;;;;;;;;;;5025645;28;20113;-51
2022/02/18 08:44:07;;;;;;;205.77;131.05;;;;;;;;;;5023988;28;20018;-49
2022/02/18 08:46:34;;;;;;;16.98;8.30;;;;;;;;;;5024455;28;20109;-49
2022/02/18 08:49:00;;;;;;;20.85;7.38;;;;;;;;;;5024669;28;20501;-51
2022/02/18 08:51:26;;;;;;;13.45;5.43;;;;;;;;;;5025912;28;20029;-50
2022/02/18 08:53:52;;;;;;;20.25;11.95;;;;;;;;;;5023543;28;20379;-50
2022/02/18 08:56:18;;;;;;;77.80;38.97;;;;;;;;;;5023441;28;20083;-54
2022/02/18 08:58:45;;;;;;;71.18;36.15;;;;;;;;;;5024000;28;20100;-61
2022/02/18 09:01:11;;;;;;;58.70;36.00;;;;;;;;;;5005987;28;20046;-52
2022/02/18 09:03:38;;;;;;;37.85;24.50;;;;;;;;;;5023320;28;20025;-56
2022/02/18 09:06:04;;;;;;;55.00;32.25;;;;;;;;;;5024465;28;20021;-50
2022/02/18 09:08:30;;;;;;;14.43;5.35;;;;;;;;;;5023082;28;20104;-48
2022/02/18 09:10:56;;;;;;;10.75;4.75;;;;;;;;;;5023801;28;20021;-48
2022/02/18 09:13:24;;;;;;;6.65;2.80;;;;;;;;;;5024714;28;20029;-57
2022/02/18 09:15:51;;;;;;;10.52;3.70;;;;;;;;;;5023336;28;20435;-53
2022/02/18 09:18:22;;;;;;;62.55;41.90;;;;;;;;;;5023127;28;20402;-49
2022/02/18 09:20:48;;;;;;;110.30;64.25;;;;;;;;;;5022545;28;20506;-58
2022/02/18 09:23:17;;;;;;;78.85;42.78;;;;;;;;;;5023285;28;20048;-55
2022/02/18 09:25:43;;;;;;;23.70;12.75;;;;;;;;;;5024364;28;20549;-48
2022/02/18 09:28:10;;;;;;;12.73;6.07;;;;;;;;;;5022670;28;20109;-50
2022/02/18 09:30:41;;;;;;;14.18;6.45;;;;;;;;;;5023005;28;20108;-58
2022/02/18 09:33:07;;;;;;;12.57;5.07;;;;;;;;;;5019749;28;20026;-51
2022/02/18 09:35:34;;;;;;;13.32;5.70;;;;;;;;;;5013841;28;20084;-50
2022/02/18 09:38:00;;;;;;;13.02;4.15;;;;;;;;;;5004283;28;20057;-51
2022/02/18 09:40:26;;;;;;;10.23;3.42;;;;;;;;;;5002056;28;20382;-50
2022/02/18 09:42:53;;;;;;;10.40;3.45;;;;;;;;;;5004700;28;20037;-51
2022/02/18 09:45:20;;;;;;;12.77;4.03;;;;;;;;;;5003087;28;20088;-52
2022/02/18 09:47:48;;;;;;;12.48;4.82;;;;;;;;;;5004650;28;20105;-54
2022/02/18 09:50:14;;;;;;;10.52;4.28;;;;;;;;;;4992365;28;20125;-53
2022/02/18 09:52:40;;;;;;;14.02;4.70;;;;;;;;;;4994594;28;20054;-52
2022/02/18 09:55:06;;;;;;;19.60;11.43;;;;;;;;;;4994890;28;20037;-53
2022/02/18 09:57:34;;;;;;;12.38;6.22;;;;;;;;;;4994572;28;20023;-53
2022/02/18 10:00:00;;;;;;;7.47;3.60;;;;;;;;;;4994371;28;20077;-53
2022/02/18 10:02:29;;;;;;;11.05;4.32;;;;;;;;;;4994279;28;20023;-52
2022/02/18 10:04:55;;;;;;;15.07;6.35;;;;;;;;;;4994409;28;20035;-54
2022/02/18 10:07:21;;;;;;;9.25;3.70;;;;;;;;;;4994465;28;20081;-54
2022/02/18 10:09:49;;;;;;;10.85;4.10;;;;;;;;;;4994482;28;20034;-53
2022/02/18 10:12:15;;;;;;;13.05;5.43;;;;;;;;;;4994712;28;20026;-53
2022/02/18 10:14:59;;;;;;;10.18;4.13;;;;;;;;;;4994511;28;20030;-55
2022/02/18 10:17:41;;;;;;;7.05;3.92;;;;;;;;;;4994478;28;20402;-52
2022/02/18 10:20:18;;;;;;;10.25;5.65;;;;;;;;;;4987395;28;20046;-53
2022/02/18 10:23:03;;;;;;;10.77;5.88;;;;;;;;;;5003140;28;20027;-52
2022/02/18 10:25:33;;;;;;;11.95;7.82;;;;;;;;;;5004002;28;20022;-55
2022/02/18 10:27:59;;;;;;;9.77;4.13;;;;;;;;;;5003424;28;20026;-54
2022/02/18 10:30:27;;;;;;;20.85;12.95;;;;;;;;;;5006841;28;20038;-53
2022/02/18 10:32:54;;;;;;;27.35;10.95;;;;;;;;;;5002893;28;20018;-54
2022/02/18 10:35:22;;;;;;;9.75;4.43;;;;;;;;;;5004149;28;20046;-53
2022/02/18 10:37:50;;;;;;;11.68;6.45;;;;;;;;;;5000601;28;20037;-51
2022/02/18 10:40:18;;;;;;;21.00;10.02;;;;;;;;;;5002729;28;20034;-52
2022/02/18 10:42:45;;;;;;;38.05;6.68;;;;;;;;;;5004131;28;20053;-51
2022/02/18 10:45:12;;;;;;;12.50;6.00;;;;;;;;;;5002996;28;20058;-52
2022/02/18 10:47:39;;;;;;;20.05;11.27;;;;;;;;;;5002268;28;20029;-53
2022/02/18 10:50:24;;;;;;;8.88;5.13;;;;;;;;;;5003492;28;20030;-54
2022/02/18 10:53:10;;;;;;;16.63;10.50;;;;;;;;;;4999916;28;20019;-53
2022/02/18 10:55:55;;;;;;;7.93;2.65;;;;;;;;;;5002046;28;20112;-53
2022/02/18 10:58:24;;;;;;;8.82;3.83;;;;;;;;;;5003530;28;20077;-52
2022/02/18 11:01:23;;;;;;;10.57;4.28;;;;;;;;;;5002683;28;20093;-52
2022/02/18 11:03:49;;;;;;;8.43;4.67;;;;;;;;;;4923970;29;20039;-50
2022/02/18 11:06:22;;;;;;;22.50;15.77;;;;;;;;;;4923507;29;20050;-50
2022/02/18 11:08:49;;;;;;;10.93;4.95;;;;;;;;;;4920757;29;20100;-54
2022/02/18 11:11:16;;;;;;;12.25;5.80;;;;;;;;;;4923671;29;20514;-52
2022/02/18 11:13:44;;;;;;;13.05;6.22;;;;;;;;;;4924736;29;20042;-53
2022/02/18 11:16:11;;;;;;;8.70;4.35;;;;;;;;;;4923378;29;20524;-49
2022/02/18 11:18:40;;;;;;;18.27;9.07;;;;;;;;;;4925179;29;20444;-50
2022/02/18 11:21:07;;;;;;;27.65;12.00;;;;;;;;;;4921665;29;20040;-51
2022/02/18 11:23:34;;;;;;;18.38;8.82;;;;;;;;;;4927573;29;20098;-49
2022/02/18 11:26:03;;;;;;;20.13;12.07;;;;;;;;;;4931144;29;20365;-49
2022/02/18 11:28:29;;;;;;;27.75;11.77;;;;;;;;;;4937708;29;20034;-52
2022/02/18 11:30:57;;;;;;;20.45;9.88;;;;;;;;;;4937548;29;20467;-49
2022/02/18 11:33:41;;;;;;;16.67;5.82;;;;;;;;;;4937188;29;20365;-53
2022/02/18 11:36:30;;;;;;;37.95;25.00;;;;;;;;;;4932834;29;20063;-53
2022/02/18 11:39:10;;;;;;;10.32;4.07;;;;;;;;;;4936022;28;20035;-52
2022/02/18 11:41:37;;;;;;;;;;;;;;;;;;4978115;28;20061;-49
2022/02/18 11:44:03;;;;;;;17.05;3.92;;;;;;;;;;4977703;28;19992;-51
2022/02/18 11:46:29;;;;;;;15.20;6.53;;;;;;;;;;4977948;28;20023;-43
2022/02/18 11:48:59;;;;;;;10.25;3.03;;;;;;;;;;4978047;28;20073;-47
2022/02/18 11:51:41;;;;;;;7.15;2.45;;;;;;;;;;4977573;28;20034;-47
2022/02/18 11:54:22;;;;;;;29.58;9.85;;;;;;;;;;4977663;28;20170;-60
2022/02/18 11:56:54;;;;;;;13.77;6.63;;;;;;;;;;4977507;28;20386;-51
2022/02/18 11:59:20;;;;;;;;;;;;;;;;;;4978169;28;20165;-51
2022/02/18 12:01:49;;;;;;;18.60;8.88;;;;;;;;;;4977469;28;19914;-53
2022/02/18 12:04:19;;;;;;;11.80;4.60;;;;;;;;;;4977605;28;20507;-55
2022/02/18 12:07:04;;;;;;;7.43;3.97;;;;;;;;;;4977528;28;20162;-50
2022/02/18 12:09:48;;;;;;;20.17;8.75;;;;;;;;;;4977399;28;20038;-50
2022/02/18 12:12:21;;;;;;;13.20;5.10;;;;;;;;;;4982355;28;20038;-50
2022/02/18 12:14:50;;;;;;;15.27;3.17;;;;;;;;;;5003918;28;20030;-50
2022/02/18 12:17:18;;;;;;;15.07;6.72;;;;;;;;;;5004938;28;20038;-50
2022/02/18 12:19:45;;;;;;;9.00;3.65;;;;;;;;;;5006334;28;20025;-50
2022/02/18 12:22:11;;;;;;;9.30;3.33;;;;;;;;;;5006352;28;20478;-50
2022/02/18 12:24:40;;;;;;;11.82;4.45;;;;;;;;;;5002159;28;20022;-50
2022/02/18 12:27:21;;;;;;;16.98;4.68;;;;;;;;;;5001079;28;20027;-50
2022/02/18 12:29:47;;;;;;;8.65;3.15;;;;;;;;;;5010287;28;20481;-50
2022/02/18 12:32:14;;;;;;;7.10;2.72;;;;;;;;;;5014604;28;20026;-51
2022/02/18 12:34:43;;;;;;;4.95;1.67;;;;;;;;;;5013806;28;20433;-50
2022/02/18 12:37:10;;;;;;;9.48;2.65;;;;;;;;;;5015845;28;20509;-49
2022/02/18 12:39:44;;;;;;;9.27;2.20;;;;;;;;;;5015721;28;20018;-51
2022/02/18 12:42:11;;;;;;;6.82;2.45;;;;;;;;;;5015776;28;20033;-50
2022/02/18 12:44:47;;;;;;;6.72;2.03;;;;;;;;;;5016153;28;20382;-50
2022/02/18 12:47:17;;;;;;;10.55;2.10;;;;;;;;;;5015551;28;20132;-50
2022/02/18 12:49:43;;;;;;;7.78;2.75;;;;;;;;;;5015665;28;20099;-49
2022/02/18 12:52:10;;;;;;;20.05;4.43;;;;;;;;;;5015504;28;20478;-49
2022/02/18 12:54:46;;;;;;;13.15;4.60;;;;;;;;;;5015444;28;20025;-50
2022/02/18 12:57:19;;;;;;;11.40;3.92;;;;;;;;;;5015366;28;20034;-50
2022/02/18 12:59:46;;;;;;;13.85;5.55;;;;;;;;;;5015856;28;20233;-50
2022/02/18 13:02:32;;;;;;;13.23;3.15;;;;;;;;;;5015491;28;20022;-51
2022/02/18 13:05:06;;;;;;;9.02;3.00;;;;;;;;;;5015307;28;20038;-51
2022/02/18 13:07:41;;;;;;;10.57;4.43;;;;;;;;;;5015344;28;20034;-50
2022/02/18 13:10:09;;;;;;;11.25;4.20;;;;;;;;;;5015114;28;20026;-50
2022/02/18 13:12:42;;;;;;;7.65;2.80;;;;;;;;;;5015373;28;20072;-51
2022/02/18 13:15:10;;;;;;;13.48;3.50;;;;;;;;;;5015118;28;20022;-51
2022/02/18 13:17:46;;;;;;;13.75;3.80;;;;;;;;;;5015297;28;20049;-51
2022/02/18 13:20:31;;;;;;;9.20;2.83;;;;;;;;;;5014873;28;20038;-50
2022/02/18 13:22:59;;;;;;;18.30;4.45;;;;;;;;;;5014790;28;20029;-51
2022/02/18 13:25:32;;;;;;;11.45;3.60;;;;;;;;;;5015099;28;20037;-51
2022/02/18 13:28:02;;;;;;;19.52;7.00;;;;;;;;;;5015008;28;20379;-51
2022/02/18 13:30:32;;;;;;;8.95;2.58;;;;;;;;;;5015033;28;20029;-52
2022/02/18 13:32:58;;;;;;;9.82;2.80;;;;;;;;;;5014839;28;20057;-51
2022/02/18 13:35:25;;;;;;;9.65;2.30;;;;;;;;;;5014805;28;20046;-52
2022/02/18 13:37:51;;;;;;;9.30;2.80;;;;;;;;;;5014690;28;20478;-52
2022/02/18 13:40:17;;;;;;;15.60;4.00;;;;;;;;;;5014467;28;20034;-52
2022/02/18 13:42:53;;;;;;;10.77;3.38;;;;;;;;;;5014727;28;20026;-52
2022/02/18 13:45:20;;;;;;;9.43;3.13;;;;;;;;;;5014184;28;20386;-51
2022/02/18 13:47:46;;;;;;;6.07;2.63;;;;;;;;;;5014470;28;20045;-51
2022/02/18 13:50:13;;;;;;;9.60;2.83;;;;;;;;;;5014553;28;20021;-52
2022/02/18 13:52:41;;;;;;;10.30;2.50;;;;;;;;;;5014707;28;20121;-52
2022/02/18 13:55:07;;;;;;;9.10;3.83;;;;;;;;;;5014666;28;20063;-53
2022/02/18 13:57:34;;;;;;;14.75;5.60;;;;;;;;;;5014444;28;20437;-51
2022/02/18 14:00:05;;;;;;;7.03;2.63;;;;;;;;;;5014325;28;20113;-52
2022/02/18 14:02:31;;;;;;;9.88;3.97;;;;;;;;;;5014360;28;20117;-53
2022/02/18 14:04:58;;;;;;;11.30;3.72;;;;;;;;;;5014332;28;20038;-53
2022/02/18 14:07:28;;;;;;;13.75;3.53;;;;;;;;;;5014274;28;20033;-53
2022/02/18 14:09:56;;;;;;;11.05;3.53;;;;;;;;;;5014166;28;20029;-52
2022/02/18 14:12:40;;;;;;;7.55;3.50;;;;;;;;;;5014491;28;20129;-52
2022/02/18 14:15:07;;;;;;;11.32;4.03;;;;;;;;;;5014456;28;20117;-52
2022/02/18 14:17:33;;;;;;;18.45;7.75;;;;;;;;;;5014135;28;20032;-52
2022/02/18 14:20:01;;;;;;;18.15;6.22;;;;;;;;;;5014001;28;20068;-53
2022/02/18 14:22:34;;;;;;;24.77;11.95;;;;;;;;;;5003511;28;20065;-53
2022/02/18 14:25:03;;;;;;;28.05;13.88;;;;;;;;;;5003075;28;20019;-53
2022/02/18 14:27:30;;;;;;;22.73;9.30;;;;;;;;;;5003326;28;20054;-53
2022/02/18 14:30:06;;;;;;;23.05;12.30;;;;;;;;;;5004476;28;20025;-52
2022/02/18 14:32:36;;;;;;;17.05;8.10;;;;;;;;;;5004447;28;20022;-53
2022/02/18 14:35:02;;;;;;;15.27;5.53;;;;;;;;;;5000332;28;20046;-53